sensor_id;sensor_type;location;lat;lon;timestamp;temperature;humidity
16995;DHT22;8614;48.522;9.206;2023-02-28T03:01:14;-1.40;99.90
16995;DHT22;8614;48.522;9.206;2023-02-28T03:03:43;-1.40;99.90
16995;DHT22;8614;48.522;9.206;2023-02-28T03:06:12;-1.40;99.90
16995;DHT22;8614;48.522;9.206;2023-02-28T03:08:39;-1.30;99.90
16995;DHT22;8614;48.522;9.206;2023-02-28T03:11:07;-1.30;99.90
16995;DHT22;8614;48.522;9.206;2023-02-28T03:13:58;-1.30;99.90
16995;DHT22;8614;48.522;9.206;2023-02-28T03:16:49;-1.30;99.90
16995;DHT22;8614;48.522;9.206;2023-02-28T03:19:31;-1.20;99.90
16995;DHT22;8614;48.522;9.206;2023-02-28T03:22:12;-1.20;99.90
16995;DHT22;8614;48.522;9.206;2023-02-28T03:24:43;-1.20;99.90
16995;DHT22;8614;48.522;9.206;2023-02-28T03:27:17;-1.20;99.90
16995;DHT22;8614;48.522;9.206;2023-02-28T03:29:49;-1.20;99.90
16995;DHT22;8614;48.522;9.206;2023-02-28T03:32:24;-1.20;99.90
16995;DHT22;8614;48.522;9.206;2023-02-28T03:34:58;-1.10;99.90
16995;DHT22;8614;48.522;9.206;2023-02-28T03:37:29;-1.00;99.90
16995;DHT22;8614;48.522;9.206;2023-02-28T03:40:03;-1.10;99.90
16995;DHT22;8614;48.522;9.206;2023-02-28T03:42:36;-1.10;99.90
16995;DHT22;8614;48.522;9.206;2023-02-28T03:45:08;-1.10;99.90
16995;DHT22;8614;48.522;9.206;2023-02-28T03:47:40;-1.10;99.90
16995;DHT22;8614;48.522;9.206;2023-02-28T03:50:13;-1.10;99.90
16995;DHT22;8614;48.522;9.206;2023-02-28T03:52:47;-1.10;99.90
16995;DHT22;8614;48.522;9.206;2023-02-28T03:55:16;-1.10;99.90
16995;DHT22;8614;48.522;9.206;2023-02-28T03:57:51;-1.10;99.90
16995;DHT22;8614;48.522;9.206;2023-02-28T04:00:27;-1.10;99.90
16995;DHT22;8614;48.522;9.206;2023-02-28T04:02:56;-1.00;99.90
16995;DHT22;8614;48.522;9.206;2023-02-28T04:05:24;-1.10;99.90
16995;DHT22;8614;48.522;9.206;2023-02-28T04:07:51;-1.10;99.90
16995;DHT22;8614;48.522;9.206;2023-02-28T04:10:18;-1.00;99.90
16995;DHT22;8614;48.522;9.206;2023-02-28T04:12:45;-1.00;99.90
16995;DHT22;8614;48.522;9.206;2023-02-28T04:15:12;-1.10;99.90
16995;DHT22;8614;48.522;9.206;2023-02-28T04:17:39;-1.10;99.90
16995;DHT22;8614;48.522;9.206;2023-02-28T04:20:08;-1.10;99.90
16995;DHT22;8614;48.522;9.206;2023-02-28T04:22:36;-1.10;99.90
16995;DHT22;8614;48.522;9.206;2023-02-28T04:25:04;-1.10;99.90
16995;DHT22;8614;48.522;9.206;2023-02-28T04:27:32;-1.00;99.90
16995;DHT22;8614;48.522;9.206;2023-02-28T04:29:58;-1.00;99.90
16995;DHT22;8614;48.522;9.206;2023-02-28T04:32:25;-1.00;99.90
16995;DHT22;8614;48.522;9.206;2023-02-28T04:34:52;-1.10;99.90
16995;DHT22;8614;48.522;9.206;2023-02-28T04:37:20;-1.10;99.90
16995;DHT22;8614;48.522;9.206;2023-02-28T04:39:58;-1.10;99.90
16995;DHT22;8614;48.522;9.206;2023-02-28T04:42:25;-1.10;99.90
16995;DHT22;8614;48.522;9.206;2023-02-28T04:44:52;-1.10;99.90
16995;DHT22;8614;48.522;9.206;2023-02-28T04:47:19;-1.10;99.90
16995;DHT22;8614;48.522;9.206;2023-02-28T04:49:46;-1.00;99.90
16995;DHT22;8614;48.522;9.206;2023-02-28T04:52:13;-1.00;99.90
16995;DHT22;8614;48.522;9.206;2023-02-28T04:54:41;-1.00;99.90
16995;DHT22;8614;48.522;9.206;2023-02-28T04:57:07;-1.00;99.90
16995;DHT22;8614;48.522;9.206;2023-02-28T04:59:34;-1.10;99.90
16995;DHT22;8614;48.522;9.206;2023-02-28T05:02:01;-1.00;99.90
16995;DHT22;8614;48.522;9.206;2023-02-28T05:04:32;-1.00;99.90
16995;DHT22;8614;48.522;9.206;2023-02-28T05:06:59;-1.00;99.90
16995;DHT22;8614;48.522;9.206;2023-02-28T05:09:26;-1.00;99.90
16995;DHT22;8614;48.522;9.206;2023-02-28T05:11:55;-1.00;99.90
16995;DHT22;8614;48.522;9.206;2023-02-28T05:14:22;-1.00;99.90
16995;DHT22;8614;48.522;9.206;2023-02-28T05:16:48;-1.00;99.90
16995;DHT22;8614;48.522;9.206;2023-02-28T05:19:15;-1.00;99.90
16995;DHT22;8614;48.522;9.206;2023-02-28T05:21:49;-1.00;99.90
16995;DHT22;8614;48.522;9.206;2023-02-28T05:24:17;-1.00;99.90
16995;DHT22;8614;48.522;9.206;2023-02-28T05:26:49;-0.90;99.90
16995;DHT22;8614;48.522;9.206;2023-02-28T05:29:18;-0.90;99.90
16995;DHT22;8614;48.522;9.206;2023-02-28T05:31:46;-0.90;99.90
16995;DHT22;8614;48.522;9.206;2023-02-28T05:34:13;-0.90;99.90
16995;DHT22;8614;48.522;9.206;2023-02-28T05:36:41;-0.90;99.90
16995;DHT22;8614;48.522;9.206;2023-02-28T05:39:08;-0.90;99.90
16995;DHT22;8614;48.522;9.206;2023-02-28T05:41:42;-0.90;99.90
16995;DHT22;8614;48.522;9.206;2023-02-28T05:44:09;-0.90;99.90
16995;DHT22;8614;48.522;9.206;2023-02-28T05:46:38;-0.90;99.90
16995;DHT22;8614;48.522;9.206;2023-02-28T05:49:04;-0.90;99.90
16995;DHT22;8614;48.522;9.206;2023-02-28T05:51:31;-0.90;99.90
16995;DHT22;8614;48.522;9.206;2023-02-28T05:54:00;-0.90;99.90
16995;DHT22;8614;48.522;9.206;2023-02-28T05:56:27;-0.90;99.90
16995;DHT22;8614;48.522;9.206;2023-02-28T05:58:54;-0.80;99.90
16995;DHT22;8614;48.522;9.206;2023-02-28T06:01:31;-0.80;99.90
16995;DHT22;8614;48.522;9.206;2023-02-28T06:04:00;-0.80;99.90
16995;DHT22;8614;48.522;9.206;2023-02-28T06:06:27;-0.80;99.90
16995;DHT22;8614;48.522;9.206;2023-02-28T06:08:55;-0.80;99.90
16995;DHT22;8614;48.522;9.206;2023-02-28T06:11:22;-0.80;99.90
16995;DHT22;8614;48.522;9.206;2023-02-28T06:13:53;-0.80;99.90
16995;DHT22;8614;48.522;9.206;2023-02-28T06:16:21;-0.80;99.90
16995;DHT22;8614;48.522;9.206;2023-02-28T06:18:47;-0.80;99.90
16995;DHT22;8614;48.522;9.206;2023-02-28T06:21:15;-0.80;99.90
16995;DHT22;8614;48.522;9.206;2023-02-28T06:23:42;-0.80;99.90
16995;DHT22;8614;48.522;9.206;2023-02-28T06:26:09;-0.80;99.90
16995;DHT22;8614;48.522;9.206;2023-02-28T06:28:36;-0.70;99.90
16995;DHT22;8614;48.522;9.206;2023-02-28T06:31:06;-0.70;99.90
16995;DHT22;8614;48.522;9.206;2023-02-28T06:33:33;-0.70;99.90
16995;DHT22;8614;48.522;9.206;2023-02-28T06:36:00;-0.70;99.90
16995;DHT22;8614;48.522;9.206;2023-02-28T06:38:29;-0.70;99.90
16995;DHT22;8614;48.522;9.206;2023-02-28T06:40:57;-0.60;99.90
16995;DHT22;8614;48.522;9.206;2023-02-28T06:43:25;-0.60;99.90
16995;DHT22;8614;48.522;9.206;2023-02-28T06:45:55;-0.60;99.90
16995;DHT22;8614;48.522;9.206;2023-02-28T06:48:22;-0.60;99.90
16995;DHT22;8614;48.522;9.206;2023-02-28T06:50:48;-0.60;99.90
16995;DHT22;8614;48.522;9.206;2023-02-28T06:53:15;-0.60;99.90
16995;DHT22;8614;48.522;9.206;2023-02-28T06:55:43;-0.60;99.90
16995;DHT22;8614;48.522;9.206;2023-02-28T06:58:10;-0.50;99.90
16995;DHT22;8614;48.522;9.206;2023-02-28T07:00:44;-0.50;99.90
16995;DHT22;8614;48.522;9.206;2023-02-28T07:03:12;-0.50;99.90
16995;DHT22;8614;48.522;9.206;2023-02-28T07:05:40;-0.50;99.90
16995;DHT22;8614;48.522;9.206;2023-02-28T07:08:07;-0.40;99.90
16995;DHT22;8614;48.522;9.206;2023-02-28T07:10:36;-0.40;99.90
16995;DHT22;8614;48.522;9.206;2023-02-28T07:13:05;-0.40;99.90
16995;DHT22;8614;48.522;9.206;2023-02-28T07:15:32;-0.40;99.90
16995;DHT22;8614;48.522;9.206;2023-02-28T07:17:58;-0.40;99.90
16995;DHT22;8614;48.522;9.206;2023-02-28T07:20:25;-0.40;99.90
16995;DHT22;8614;48.522;9.206;2023-02-28T07:22:52;-0.40;99.90
16995;DHT22;8614;48.522;9.206;2023-02-28T07:25:22;-0.40;99.90
16995;DHT22;8614;48.522;9.206;2023-02-28T07:27:49;-0.30;99.90
16995;DHT22;8614;48.522;9.206;2023-02-28T07:30:18;-0.40;99.90
16995;DHT22;8614;48.522;9.206;2023-02-28T07:32:45;-0.30;99.90
16995;DHT22;8614;48.522;9.206;2023-02-28T07:35:12;-0.30;99.90
16995;DHT22;8614;48.522;9.206;2023-02-28T07:37:40;-0.30;99.90
16995;DHT22;8614;48.522;9.206;2023-02-28T07:40:10;-0.30;99.90
16995;DHT22;8614;48.522;9.206;2023-02-28T07:42:38;-0.20;99.90
16995;DHT22;8614;48.522;9.206;2023-02-28T07:45:07;-0.20;99.90
16995;DHT22;8614;48.522;9.206;2023-02-28T07:47:35;-0.10;99.90
16995;DHT22;8614;48.522;9.206;2023-02-28T07:50:02;-0.10;99.90
16995;DHT22;8614;48.522;9.206;2023-02-28T07:52:29;-0.10;99.90
16995;DHT22;8614;48.522;9.206;2023-02-28T07:54:56;0.00;99.90
16995;DHT22;8614;48.522;9.206;2023-02-28T07:57:22;0.10;99.90
16995;DHT22;8614;48.522;9.206;2023-02-28T07:59:49;0.10;99.90
16995;DHT22;8614;48.522;9.206;2023-02-28T08:02:17;0.10;99.90
16995;DHT22;8614;48.522;9.206;2023-02-28T08:04:45;0.20;99.90
16995;DHT22;8614;48.522;9.206;2023-02-28T08:07:13;0.20;99.90
16995;DHT22;8614;48.522;9.206;2023-02-28T08:09:41;0.20;99.90
16995;DHT22;8614;48.522;9.206;2023-02-28T08:12:08;0.20;99.90
16995;DHT22;8614;48.522;9.206;2023-02-28T08:14:36;0.30;99.90
16995;DHT22;8614;48.522;9.206;2023-02-28T08:17:03;0.30;99.90
16995;DHT22;8614;48.522;9.206;2023-02-28T08:19:30;0.30;99.90
16995;DHT22;8614;48.522;9.206;2023-02-28T08:21:59;0.40;99.90
16995;DHT22;8614;48.522;9.206;2023-02-28T08:24:26;0.40;99.90
16995;DHT22;8614;48.522;9.206;2023-02-28T08:26:52;0.50;99.90
16995;DHT22;8614;48.522;9.206;2023-02-28T08:29:19;0.50;99.90
16995;DHT22;8614;48.522;9.206;2023-02-28T08:31:46;0.60;99.90
16995;DHT22;8614;48.522;9.206;2023-02-28T08:34:14;0.60;99.90
16995;DHT22;8614;48.522;9.206;2023-02-28T08:36:42;0.60;99.90
16995;DHT22;8614;48.522;9.206;2023-02-28T08:39:11;0.70;99.90
16995;DHT22;8614;48.522;9.206;2023-02-28T08:41:38;0.70;99.90
16995;DHT22;8614;48.522;9.206;2023-02-28T08:44:06;0.70;99.90
16995;DHT22;8614;48.522;9.206;2023-02-28T08:46:33;0.70;99.90
16995;DHT22;8614;48.522;9.206;2023-02-28T08:49:00;0.80;99.90
16995;DHT22;8614;48.522;9.206;2023-02-28T08:51:28;0.80;99.90
16995;DHT22;8614;48.522;9.206;2023-02-28T08:53:57;0.80;99.90
16995;DHT22;8614;48.522;9.206;2023-02-28T08:56:27;0.80;99.90
16995;DHT22;8614;48.522;9.206;2023-02-28T08:58:55;0.90;99.90
16995;DHT22;8614;48.522;9.206;2023-02-28T09:01:24;0.80;99.90
16995;DHT22;8614;48.522;9.206;2023-02-28T09:03:53;0.90;99.90
16995;DHT22;8614;48.522;9.206;2023-02-28T09:06:21;0.90;99.90
16995;DHT22;8614;48.522;9.206;2023-02-28T09:08:48;1.00;99.90
16995;DHT22;8614;48.522;9.206;2023-02-28T09:11:15;1.00;99.90
16995;DHT22;8614;48.522;9.206;2023-02-28T09:13:45;1.00;99.90
16995;DHT22;8614;48.522;9.206;2023-02-28T09:16:14;1.00;99.90
16995;DHT22;8614;48.522;9.206;2023-02-28T09:18:42;1.10;99.90
16995;DHT22;8614;48.522;9.206;2023-02-28T09:21:10;1.20;99.90
16995;DHT22;8614;48.522;9.206;2023-02-28T09:23:39;1.20;99.90
16995;DHT22;8614;48.522;9.206;2023-02-28T09:26:07;1.20;99.90
16995;DHT22;8614;48.522;9.206;2023-02-28T09:28:34;1.20;99.90
16995;DHT22;8614;48.522;9.206;2023-02-28T09:31:02;1.20;99.90
16995;DHT22;8614;48.522;9.206;2023-02-28T09:33:30;1.20;99.90
16995;DHT22;8614;48.522;9.206;2023-02-28T09:35:59;1.10;99.90
16995;DHT22;8614;48.522;9.206;2023-02-28T09:38:26;1.10;99.90
16995;DHT22;8614;48.522;9.206;2023-02-28T09:40:55;1.20;99.90
16995;DHT22;8614;48.522;9.206;2023-02-28T09:43:25;1.20;99.90
16995;DHT22;8614;48.522;9.206;2023-02-28T09:45:55;1.30;99.90
16995;DHT22;8614;48.522;9.206;2023-02-28T09:48:29;1.50;99.90
16995;DHT22;8614;48.522;9.206;2023-02-28T09:51:02;1.70;99.90
16995;DHT22;8614;48.522;9.206;2023-02-28T09:53:31;1.80;99.90
16995;DHT22;8614;48.522;9.206;2023-02-28T09:56:01;1.80;99.90
16995;DHT22;8614;48.522;9.206;2023-02-28T09:58:35;1.90;99.90
16995;DHT22;8614;48.522;9.206;2023-02-28T10:01:09;2.00;99.90
16995;DHT22;8614;48.522;9.206;2023-02-28T10:03:41;2.00;99.90
16995;DHT22;8614;48.522;9.206;2023-02-28T10:06:16;2.00;99.90
16995;DHT22;8614;48.522;9.206;2023-02-28T10:08:51;1.90;99.90
16995;DHT22;8614;48.522;9.206;2023-02-28T10:11:20;2.10;99.90
16995;DHT22;8614;48.522;9.206;2023-02-28T10:13:54;2.10;99.90
16995;DHT22;8614;48.522;9.206;2023-02-28T10:16:30;2.10;99.90
16995;DHT22;8614;48.522;9.206;2023-02-28T10:19:02;2.10;99.90
16995;DHT22;8614;48.522;9.206;2023-02-28T10:21:34;2.20;99.90
16995;DHT22;8614;48.522;9.206;2023-02-28T10:24:07;2.30;99.90
16995;DHT22;8614;48.522;9.206;2023-02-28T10:26:37;2.30;99.90
16995;DHT22;8614;48.522;9.206;2023-02-28T10:29:07;2.50;99.90
16995;DHT22;8614;48.522;9.206;2023-02-28T10:31:34;2.50;99.90
16995;DHT22;8614;48.522;9.206;2023-02-28T10:34:02;2.60;99.90
16995;DHT22;8614;48.522;9.206;2023-02-28T10:36:31;2.70;99.90
16995;DHT22;8614;48.522;9.206;2023-02-28T10:38:58;2.80;99.90
16995;DHT22;8614;48.522;9.206;2023-02-28T10:41:30;3.00;99.90
16995;DHT22;8614;48.522;9.206;2023-02-28T10:44:14;2.90;99.90
16995;DHT22;8614;48.522;9.206;2023-02-28T10:46:42;2.90;99.90
16995;DHT22;8614;48.522;9.206;2023-02-28T10:49:17;3.00;99.90
16995;DHT22;8614;48.522;9.206;2023-02-28T10:51:48;2.80;99.90
16995;DHT22;8614;48.522;9.206;2023-02-28T10:54:18;2.90;99.90
16995;DHT22;8614;48.522;9.206;2023-02-28T10:56:46;3.10;99.90
16995;DHT22;8614;48.522;9.206;2023-02-28T10:59:32;2.80;99.90
16995;DHT22;8614;48.522;9.206;2023-02-28T11:01:59;2.80;99.90
16995;DHT22;8614;48.522;9.206;2023-02-28T11:04:35;3.00;99.90
16995;DHT22;8614;48.522;9.206;2023-02-28T11:07:06;3.00;99.90
16995;DHT22;8614;48.522;9.206;2023-02-28T11:09:34;2.80;99.90
16995;DHT22;8614;48.522;9.206;2023-02-28T11:12:03;2.80;99.90
16995;DHT22;8614;48.522;9.206;2023-02-28T11:14:32;2.90;99.90
16995;DHT22;8614;48.522;9.206;2023-02-28T11:17:11;3.00;99.90
16995;DHT22;8614;48.522;9.206;2023-02-28T11:19:46;3.10;99.90
16995;DHT22;8614;48.522;9.206;2023-02-28T11:22:18;3.00;99.90
16995;DHT22;8614;48.522;9.206;2023-02-28T11:24:48;3.00;99.90
16995;DHT22;8614;48.522;9.206;2023-02-28T11:30:31;3.30;99.90
16995;DHT22;8614;48.522;9.206;2023-02-28T11:32:59;3.60;99.90
16995;DHT22;8614;48.522;9.206;2023-02-28T11:35:31;3.60;99.90
16995;DHT22;8614;48.522;9.206;2023-02-28T11:38:00;3.70;99.90
16995;DHT22;8614;48.522;9.206;2023-02-28T11:40:33;3.60;99.90
16995;DHT22;8614;48.522;9.206;2023-02-28T11:43:16;3.60;99.90
16995;DHT22;8614;48.522;9.206;2023-02-28T11:46:00;3.80;99.90
16995;DHT22;8614;48.522;9.206;2023-02-28T11:48:34;3.70;99.90
16995;DHT22;8614;48.522;9.206;2023-02-28T11:51:13;3.80;99.90
16995;DHT22;8614;48.522;9.206;2023-02-28T11:53:55;3.90;99.90
16995;DHT22;8614;48.522;9.206;2023-02-28T11:56:31;3.60;99.90
16995;DHT22;8614;48.522;9.206;2023-02-28T11:59:14;3.70;99.90
16995;DHT22;8614;48.522;9.206;2023-02-28T12:02:03;3.80;99.90
16995;DHT22;8614;48.522;9.206;2023-02-28T12:04:38;3.80;99.90
16995;DHT22;8614;48.522;9.206;2023-02-28T12:07:13;4.10;99.90
16995;DHT22;8614;48.522;9.206;2023-02-28T12:09:51;4.20;99.90
16995;DHT22;8614;48.522;9.206;2023-02-28T12:12:28;4.20;99.90
16995;DHT22;8614;48.522;9.206;2023-02-28T12:18:11;4.40;99.90
16995;DHT22;8614;48.522;9.206;2023-02-28T12:20:46;4.40;99.90
16995;DHT22;8614;48.522;9.206;2023-02-28T12:23:34;4.40;99.90
16995;DHT22;8614;48.522;9.206;2023-02-28T12:26:14;4.50;99.90
16995;DHT22;8614;48.522;9.206;2023-02-28T12:28:44;4.40;99.90
16995;DHT22;8614;48.522;9.206;2023-02-28T12:31:18;4.30;99.90
16995;DHT22;8614;48.522;9.206;2023-02-28T12:33:50;4.40;99.90
16995;DHT22;8614;48.522;9.206;2023-02-28T12:36:19;4.60;99.90
16995;DHT22;8614;48.522;9.206;2023-02-28T12:38:53;4.50;99.90
16995;DHT22;8614;48.522;9.206;2023-02-28T12:41:27;4.40;99.90
16995;DHT22;8614;48.522;9.206;2023-02-28T12:44:00;4.40;99.90
16995;DHT22;8614;48.522;9.206;2023-02-28T12:46:32;4.30;99.90
16995;DHT22;8614;48.522;9.206;2023-02-28T12:49:04;4.30;99.90
16995;DHT22;8614;48.522;9.206;2023-02-28T12:51:34;4.40;99.90
16995;DHT22;8614;48.522;9.206;2023-02-28T12:54:12;4.50;99.90
16995;DHT22;8614;48.522;9.206;2023-02-28T12:56:45;4.70;99.90
16995;DHT22;8614;48.522;9.206;2023-02-28T12:59:21;4.80;99.90
16995;DHT22;8614;48.522;9.206;2023-02-28T13:02:02;4.90;99.90
16995;DHT22;8614;48.522;9.206;2023-02-28T13:04:55;5.00;99.90
16995;DHT22;8614;48.522;9.206;2023-02-28T13:08:01;5.00;99.90
16995;DHT22;8614;48.522;9.206;2023-02-28T13:10:43;5.00;99.90
16995;DHT22;8614;48.522;9.206;2023-02-28T13:13:16;4.80;99.90
16995;DHT22;8614;48.522;9.206;2023-02-28T13:15:58;4.80;99.90
16995;DHT22;8614;48.522;9.206;2023-02-28T13:18:34;4.70;99.90
16995;DHT22;8614;48.522;9.206;2023-02-28T13:21:03;4.70;99.90
16995;DHT22;8614;48.522;9.206;2023-02-28T13:24:00;4.70;99.90
16995;DHT22;8614;48.522;9.206;2023-02-28T13:29:37;4.60;99.90
16995;DHT22;8614;48.522;9.206;2023-02-28T13:32:35;4.70;99.90
16995;DHT22;8614;48.522;9.206;2023-02-28T13:35:43;4.80;99.90
16995;DHT22;8614;48.522;9.206;2023-02-28T13:38:35;4.90;99.90
16995;DHT22;8614;48.522;9.206;2023-02-28T13:44:22;5.10;99.90
16995;DHT22;8614;48.522;9.206;2023-02-28T13:47:27;5.10;99.90
16995;DHT22;8614;48.522;9.206;2023-02-28T13:50:14;5.10;99.90
16995;DHT22;8614;48.522;9.206;2023-02-28T13:52:47;5.00;99.90
16995;DHT22;8614;48.522;9.206;2023-02-28T13:55:25;5.00;99.90
16995;DHT22;8614;48.522;9.206;2023-02-28T13:58:41;5.10;99.90
16995;DHT22;8614;48.522;9.206;2023-02-28T14:01:31;5.20;99.90
16995;DHT22;8614;48.522;9.206;2023-02-28T14:04:21;5.20;99.90
16995;DHT22;8614;48.522;9.206;2023-02-28T14:06:56;5.20;99.90
16995;DHT22;8614;48.522;9.206;2023-02-28T14:09:25;5.30;99.90
16995;DHT22;8614;48.522;9.206;2023-02-28T14:15:40;5.40;99.90
16995;DHT22;8614;48.522;9.206;2023-02-28T14:18:20;5.40;99.90
16995;DHT22;8614;48.522;9.206;2023-02-28T14:20:55;5.50;99.90
16995;DHT22;8614;48.522;9.206;2023-02-28T14:29:34;5.50;99.90
16995;DHT22;8614;48.522;9.206;2023-02-28T14:32:10;5.70;99.90
16995;DHT22;8614;48.522;9.206;2023-02-28T14:34:42;5.70;99.90
16995;DHT22;8614;48.522;9.206;2023-02-28T14:37:15;5.70;99.90
16995;DHT22;8614;48.522;9.206;2023-02-28T14:39:44;5.70;99.90
16995;DHT22;8614;48.522;9.206;2023-02-28T14:42:28;5.70;99.90
16995;DHT22;8614;48.522;9.206;2023-02-28T14:44:56;5.70;99.90
16995;DHT22;8614;48.522;9.206;2023-02-28T14:47:25;5.80;99.90
16995;DHT22;8614;48.522;9.206;2023-02-28T14:49:53;5.80;99.90
16995;DHT22;8614;48.522;9.206;2023-02-28T14:52:24;5.70;99.90
16995;DHT22;8614;48.522;9.206;2023-02-28T14:54:54;5.70;99.90
16995;DHT22;8614;48.522;9.206;2023-02-28T14:57:23;5.80;99.90
16995;DHT22;8614;48.522;9.206;2023-02-28T15:00:00;5.90;99.90
16995;DHT22;8614;48.522;9.206;2023-02-28T15:02:36;5.90;99.90
16995;DHT22;8614;48.522;9.206;2023-02-28T15:05:20;5.90;99.90
16995;DHT22;8614;48.522;9.206;2023-02-28T15:08:01;5.90;99.90
16995;DHT22;8614;48.522;9.206;2023-02-28T15:10:28;5.80;99.90
16995;DHT22;8614;48.522;9.206;2023-02-28T15:12:57;5.90;99.90
16995;DHT22;8614;48.522;9.206;2023-02-28T15:15:29;5.90;99.90
16995;DHT22;8614;48.522;9.206;2023-02-28T15:18:01;5.80;99.90
16995;DHT22;8614;48.522;9.206;2023-02-28T15:20:29;5.80;99.90
16995;DHT22;8614;48.522;9.206;2023-02-28T15:22:57;5.80;99.90
16995;DHT22;8614;48.522;9.206;2023-02-28T15:25:25;5.80;99.90
16995;DHT22;8614;48.522;9.206;2023-02-28T15:27:55;5.70;99.90
16995;DHT22;8614;48.522;9.206;2023-02-28T15:30:26;5.70;99.90
16995;DHT22;8614;48.522;9.206;2023-02-28T15:33:17;5.70;99.90
16995;DHT22;8614;48.522;9.206;2023-02-28T15:35:45;5.70;99.90
16995;DHT22;8614;48.522;9.206;2023-02-28T15:38:18;5.60;99.90
16995;DHT22;8614;48.522;9.206;2023-02-28T15:40:51;5.50;99.90
16995;DHT22;8614;48.522;9.206;2023-02-28T15:43:28;5.50;99.90
16995;DHT22;8614;48.522;9.206;2023-02-28T15:45:58;5.40;99.90
16995;DHT22;8614;48.522;9.206;2023-02-28T15:48:28;5.40;99.90
16995;DHT22;8614;48.522;9.206;2023-02-28T15:50:58;5.40;99.90
16995;DHT22;8614;48.522;9.206;2023-02-28T15:53:32;5.40;99.90
16995;DHT22;8614;48.522;9.206;2023-02-28T15:56:01;5.40;99.90
16995;DHT22;8614;48.522;9.206;2023-02-28T15:58:29;5.40;99.90
16995;DHT22;8614;48.522;9.206;2023-02-28T16:01:08;5.40;99.90
16995;DHT22;8614;48.522;9.206;2023-02-28T16:03:44;5.40;99.90
16995;DHT22;8614;48.522;9.206;2023-02-28T16:06:42;5.40;99.90
16995;DHT22;8614;48.522;9.206;2023-02-28T16:09:13;5.30;99.90
16995;DHT22;8614;48.522;9.206;2023-02-28T16:11:43;5.30;99.90
16995;DHT22;8614;48.522;9.206;2023-02-28T16:14:17;5.20;99.90
16995;DHT22;8614;48.522;9.206;2023-02-28T16:16:45;5.20;99.90
16995;DHT22;8614;48.522;9.206;2023-02-28T16:19:12;5.10;99.90
16995;DHT22;8614;48.522;9.206;2023-02-28T16:21:39;5.00;99.90
16995;DHT22;8614;48.522;9.206;2023-02-28T16:24:07;5.00;99.90
16995;DHT22;8614;48.522;9.206;2023-02-28T16:26:35;4.90;99.90
16995;DHT22;8614;48.522;9.206;2023-02-28T16:29:03;4.80;99.90
16995;DHT22;8614;48.522;9.206;2023-02-28T16:31:31;4.70;99.90
16995;DHT22;8614;48.522;9.206;2023-02-28T16:33:59;4.70;99.90
16995;DHT22;8614;48.522;9.206;2023-02-28T16:36:26;4.60;99.90
16995;DHT22;8614;48.522;9.206;2023-02-28T16:38:54;4.60;99.90
16995;DHT22;8614;48.522;9.206;2023-02-28T16:41:25;4.50;99.90
16995;DHT22;8614;48.522;9.206;2023-02-28T16:43:54;4.40;99.90
16995;DHT22;8614;48.522;9.206;2023-02-28T16:46:25;4.40;99.90
16995;DHT22;8614;48.522;9.206;2023-02-28T16:48:53;4.30;99.90
16995;DHT22;8614;48.522;9.206;2023-02-28T16:51:20;4.20;99.90
16995;DHT22;8614;48.522;9.206;2023-02-28T16:53:47;4.10;99.90
16995;DHT22;8614;48.522;9.206;2023-02-28T16:56:17;4.00;99.90
16995;DHT22;8614;48.522;9.206;2023-02-28T16:58:44;3.90;99.90
16995;DHT22;8614;48.522;9.206;2023-02-28T17:01:13;3.80;99.90
16995;DHT22;8614;48.522;9.206;2023-02-28T17:03:41;3.70;99.90
16995;DHT22;8614;48.522;9.206;2023-02-28T17:06:17;3.60;99.90
16995;DHT22;8614;48.522;9.206;2023-02-28T17:08:46;3.50;99.90
16995;DHT22;8614;48.522;9.206;2023-02-28T17:11:13;3.50;99.90
16995;DHT22;8614;48.522;9.206;2023-02-28T17:13:40;3.40;99.90
16995;DHT22;8614;48.522;9.206;2023-02-28T17:16:15;3.40;99.90
16995;DHT22;8614;48.522;9.206;2023-02-28T17:18:43;3.30;99.90
16995;DHT22;8614;48.522;9.206;2023-02-28T17:21:14;3.30;99.90
16995;DHT22;8614;48.522;9.206;2023-02-28T17:23:41;3.20;99.90
16995;DHT22;8614;48.522;9.206;2023-02-28T17:26:13;3.20;99.90
16995;DHT22;8614;48.522;9.206;2023-02-28T17:28:40;3.20;99.90
16995;DHT22;8614;48.522;9.206;2023-02-28T17:31:08;3.10;99.90
16995;DHT22;8614;48.522;9.206;2023-02-28T17:33:36;3.10;99.90
16995;DHT22;8614;48.522;9.206;2023-02-28T17:36:03;3.00;99.90
16995;DHT22;8614;48.522;9.206;2023-02-28T17:38:30;3.00;99.90
16995;DHT22;8614;48.522;9.206;2023-02-28T17:40:57;3.00;99.90
16995;DHT22;8614;48.522;9.206;2023-02-28T17:43:24;2.90;99.90
16995;DHT22;8614;48.522;9.206;2023-02-28T17:45:51;2.90;99.90
16995;DHT22;8614;48.522;9.206;2023-02-28T17:48:18;2.80;99.90
16995;DHT22;8614;48.522;9.206;2023-02-28T17:50:47;2.80;99.90
16995;DHT22;8614;48.522;9.206;2023-02-28T17:53:14;2.80;99.90
16995;DHT22;8614;48.522;9.206;2023-02-28T17:55:41;2.70;99.90
16995;DHT22;8614;48.522;9.206;2023-02-28T17:58:09;2.60;99.90
16995;DHT22;8614;48.522;9.206;2023-02-28T18:00:49;2.60;99.90
16995;DHT22;8614;48.522;9.206;2023-02-28T18:03:39;2.50;99.90
16995;DHT22;8614;48.522;9.206;2023-02-28T18:06:14;2.50;99.90
16995;DHT22;8614;48.522;9.206;2023-02-28T18:08:44;2.40;99.90
16995;DHT22;8614;48.522;9.206;2023-02-28T18:11:11;2.30;99.90
16995;DHT22;8614;48.522;9.206;2023-02-28T18:14:10;2.30;99.90
16995;DHT22;8614;48.522;9.206;2023-02-28T18:16:39;2.30;99.90
16995;DHT22;8614;48.522;9.206;2023-02-28T18:19:16;2.30;99.90
16995;DHT22;8614;48.522;9.206;2023-02-28T18:21:45;2.30;99.90
16995;DHT22;8614;48.522;9.206;2023-02-28T18:24:15;2.20;99.90
16995;DHT22;8614;48.522;9.206;2023-02-28T18:26:45;2.20;99.90
16995;DHT22;8614;48.522;9.206;2023-02-28T18:29:19;2.10;99.90
16995;DHT22;8614;48.522;9.206;2023-02-28T18:31:46;2.10;99.90
16995;DHT22;8614;48.522;9.206;2023-02-28T18:34:13;2.10;99.90
16995;DHT22;8614;48.522;9.206;2023-02-28T18:36:40;2.00;99.90
16995;DHT22;8614;48.522;9.206;2023-02-28T18:39:08;2.00;99.90
16995;DHT22;8614;48.522;9.206;2023-02-28T18:41:36;2.00;99.90
16995;DHT22;8614;48.522;9.206;2023-02-28T18:44:03;2.00;99.90
16995;DHT22;8614;48.522;9.206;2023-02-28T18:46:31;1.90;99.90
16995;DHT22;8614;48.522;9.206;2023-02-28T18:48:59;1.80;99.90
16995;DHT22;8614;48.522;9.206;2023-02-28T18:51:31;1.80;99.90
16995;DHT22;8614;48.522;9.206;2023-02-28T18:54:02;1.80;99.90
16995;DHT22;8614;48.522;9.206;2023-02-28T18:56:32;1.70;99.90
16995;DHT22;8614;48.522;9.206;2023-02-28T18:59:13;1.70;99.90
16995;DHT22;8614;48.522;9.206;2023-02-28T19:01:54;1.70;99.90
16995;DHT22;8614;48.522;9.206;2023-02-28T19:04:21;1.70;99.90
16995;DHT22;8614;48.522;9.206;2023-02-28T19:06:48;1.70;99.90
16995;DHT22;8614;48.522;9.206;2023-02-28T19:09:15;1.60;99.90
16995;DHT22;8614;48.522;9.206;2023-02-28T19:11:43;1.60;99.90
16995;DHT22;8614;48.522;9.206;2023-02-28T19:14:10;1.60;99.90
16995;DHT22;8614;48.522;9.206;2023-02-28T19:16:36;1.60;99.90
16995;DHT22;8614;48.522;9.206;2023-02-28T19:19:03;1.60;99.90
16995;DHT22;8614;48.522;9.206;2023-02-28T19:21:33;1.60;99.90
16995;DHT22;8614;48.522;9.206;2023-02-28T19:24:02;1.50;99.90
16995;DHT22;8614;48.522;9.206;2023-02-28T19:26:29;1.40;99.90
16995;DHT22;8614;48.522;9.206;2023-02-28T19:29:22;1.40;99.90
16995;DHT22;8614;48.522;9.206;2023-02-28T19:32:04;1.30;99.90
16995;DHT22;8614;48.522;9.206;2023-02-28T19:34:42;1.30;99.90
16995;DHT22;8614;48.522;9.206;2023-02-28T19:37:13;1.30;99.90
16995;DHT22;8614;48.522;9.206;2023-02-28T19:39:42;1.30;99.90
16995;DHT22;8614;48.522;9.206;2023-02-28T19:42:21;1.20;99.90
16995;DHT22;8614;48.522;9.206;2023-02-28T19:44:49;1.10;99.90
16995;DHT22;8614;48.522;9.206;2023-02-28T19:47:16;1.10;99.90